Time;durP1;ratioP1;P1;durP2;ratioP2;P2;SDS_P1;SDS_P2;PMS_P1;PMS_P2;Temp;Humidity;BMP_temperature;BMP_pressure;BME280_temperature;BME280_humidity;BME280_pressure;Samples;Min_cycle;Max_cycle;Signal;HPM_P1;HPM_P2
2022/12/11 00:01:48;;;;;;;0.05;0.05;;;6.30;99.90;;;;;;5087080;28;20040;-74
2022/12/11 00:04:14;;;;;;;0.10;0.10;;;6.30;99.90;;;;;;5091448;28;20024;-74
2022/12/11 00:06:40;;;;;;;0.00;0.00;;;6.40;99.90;;;;;;5089778;28;20027;-75
2022/12/11 00:09:06;;;;;;;0.10;0.10;;;6.30;99.90;;;;;;5092058;28;20248;-73
2022/12/11 00:11:36;;;;;;;0.10;0.10;;;6.40;99.90;;;;;;5096002;28;20012;-74
2022/12/11 00:14:02;;;;;;;0.10;0.10;;;6.40;99.90;;;;;;5102591;28;20047;-74
2022/12/11 00:16:28;;;;;;;0.00;0.00;;;6.40;99.90;;;;;;5115880;28;20059;-75
2022/12/11 00:18:54;;;;;;;0.10;0.10;;;6.40;99.90;;;;;;5099557;28;20004;-75
2022/12/11 00:21:20;;;;;;;0.10;0.10;;;6.40;99.90;;;;;;5100102;28;20028;-73
2022/12/11 00:23:57;;;;;;;0.10;0.10;;;6.30;99.90;;;;;;5054416;28;20121;-75
2022/12/11 00:26:26;;;;;;;0.10;0.10;;;8.10;99.90;;;;;;5047075;28;20037;-75
2022/12/11 00:28:57;;;;;;;0.10;0.10;;;6.40;99.90;;;;;;5047892;28;20025;-73
2022/12/11 00:31:28;;;;;;;0.10;0.10;;;7.10;99.90;;;;;;5035007;28;20033;-75
2022/12/11 00:33:54;;;;;;;0.10;0.10;;;6.20;99.90;;;;;;5031230;28;20033;-75
2022/12/11 00:36:23;;;;;;;0.00;0.00;;;6.10;99.90;;;;;;5044804;28;20040;-75
2022/12/11 00:38:59;;;;;;;0.00;0.00;;;6.10;99.90;;;;;;5047342;28;20028;-75
2022/12/11 00:42:06;;;;;;;0.03;0.03;;;6.00;99.90;;;;;;5050978;28;20018;-75
2022/12/11 00:44:33;;;;;;;0.00;0.00;;;6.00;99.90;;;;;;5019076;28;20025;-73
2022/12/11 00:46:58;;;;;;;0.00;0.00;;;5.90;99.90;;;;;;5050098;28;20072;-75
2022/12/11 00:49:26;;;;;;;0.00;0.00;;;5.90;99.90;;;;;;5045669;28;20041;-75
2022/12/11 00:51:52;;;;;;;0.00;0.00;;;6.00;99.90;;;;;;5041511;28;20029;-75
2022/12/11 00:54:48;;;;;;;0.10;0.10;;;6.00;99.90;;;;;;5045477;28;20064;-75
2022/12/11 00:57:15;;;;;;;0.00;0.00;;;5.70;99.90;;;;;;5040560;28;20105;-75
2022/12/11 00:59:41;;;;;;;0.00;0.00;;;5.90;99.90;;;;;;5024225;28;20045;-75
2022/12/11 01:02:07;;;;;;;0.00;0.00;;;6.00;99.90;;;;;;5088052;28;20040;-75
2022/12/11 01:04:35;;;;;;;0.03;0.03;;;5.90;99.90;;;;;;5098405;28;20027;-75
2022/12/11 01:07:01;;;;;;;0.00;0.00;;;5.90;99.90;;;;;;5093211;28;20076;-75
2022/12/11 01:12:11;;;;;;;0.00;0.00;;;5.80;99.90;;;;;;5086560;28;20238;-74
2022/12/11 01:14:37;;;;;;;0.00;0.00;;;5.80;99.90;;;;;;5092966;28;20085;-74
2022/12/11 01:17:06;;;;;;;0.00;0.00;;;5.80;99.90;;;;;;5092597;28;20044;-75
2022/12/11 01:19:32;;;;;;;0.00;0.00;;;5.80;99.90;;;;;;5093325;28;20036;-75
2022/12/11 01:21:58;;;;;;;0.10;0.10;;;5.70;99.90;;;;;;5093886;28;20035;-75
2022/12/11 01:24:24;;;;;;;0.10;0.10;;;5.80;99.90;;;;;;5090893;28;20032;-75
2022/12/11 01:26:49;;;;;;;0.00;0.00;;;5.70;99.90;;;;;;5088853;28;20236;-75
2022/12/11 01:29:15;;;;;;;0.00;0.00;;;5.60;99.90;;;;;;5093397;28;20030;-75
2022/12/11 01:31:41;;;;;;;0.10;0.10;;;5.60;99.90;;;;;;5093263;28;20030;-75
2022/12/11 01:34:06;;;;;;;0.10;0.10;;;5.50;99.90;;;;;;5090855;28;20032;-75
2022/12/11 01:36:32;;;;;;;0.10;0.10;;;5.50;99.90;;;;;;5082622;28;20336;-75
2022/12/11 01:38:58;;;;;;;0.00;0.00;;;5.50;99.90;;;;;;5091493;28;20053;-75
2022/12/11 01:41:24;;;;;;;0.10;0.10;;;5.50;99.90;;;;;;5090628;28;20036;-75
2022/12/11 01:44:34;;;;;;;0.00;0.00;;;4.10;99.90;;;;;;5091690;28;20024;-74
2022/12/11 01:47:00;;;;;;;0.00;0.00;;;5.50;99.90;;;;;;5040933;28;20033;-75
2022/12/11 01:49:27;;;;;;;0.10;0.10;;;5.40;99.90;;;;;;5040607;28;20396;-75
2022/12/11 01:52:10;;;;;;;0.00;0.00;;;5.40;99.90;;;;;;5049573;28;20283;-75
2022/12/11 01:54:36;;;;;;;0.00;0.00;;;5.40;99.90;;;;;;5050746;28;20164;-75
2022/12/11 01:57:07;;;;;;;0.10;0.10;;;5.40;99.90;;;;;;5050443;28;20072;-75
2022/12/11 01:59:36;;;;;;;0.10;0.10;;;5.40;99.90;;;;;;5049079;28;20059;-75
2022/12/11 02:02:08;;;;;;;0.00;0.00;;;5.40;99.90;;;;;;5051598;28;20097;-75
2022/12/11 02:04:37;;;;;;;0.00;0.00;;;5.30;99.90;;;;;;5050509;28;20029;-75
2022/12/11 02:07:04;;;;;;;0.00;0.00;;;5.20;99.90;;;;;;5050103;28;20123;-75
2022/12/11 02:09:35;;;;;;;0.03;0.03;;;5.30;99.90;;;;;;5051309;28;20249;-75
2022/12/11 02:12:02;;;;;;;0.00;0.00;;;5.20;99.90;;;;;;5042484;28;20064;-75
2022/12/11 02:14:35;;;;;;;0.00;0.00;;;5.30;99.90;;;;;;5049834;28;20491;-75
2022/12/11 02:17:05;;;;;;;0.00;0.00;;;5.20;99.90;;;;;;5053315;28;20037;-75
2022/12/11 02:19:49;;;;;;;0.00;0.00;;;5.20;99.90;;;;;;5048013;28;20143;-75
2022/12/11 02:22:49;;;;;;;0.00;0.00;;;5.30;99.90;;;;;;5067347;28;20637;-75
2022/12/11 02:25:26;;;;;;;0.00;0.00;;;5.30;99.90;;;;;;5048179;28;20033;-74
2022/12/11 02:28:19;;;;;;;0.00;0.00;;;1.90;99.90;;;;;;5054729;28;20511;-75
2022/12/11 02:31:06;;;;;;;0.00;0.00;;;5.20;99.90;;;;;;5055326;28;20092;-75
2022/12/11 02:34:00;;;;;;;0.03;0.03;;;5.20;99.90;;;;;;5055925;28;20056;-75
2022/12/11 02:36:31;;;;;;;0.00;0.00;;;5.10;99.90;;;;;;5016496;28;20121;-75
2022/12/11 02:38:59;;;;;;;0.00;0.00;;;5.30;99.90;;;;;;5017247;28;20050;-75
2022/12/11 02:41:28;;;;;;;0.00;0.00;;;5.30;99.90;;;;;;5017130;28;20583;-74
2022/12/11 02:43:56;;;;;;;0.00;0.00;;;5.20;99.90;;;;;;5017156;28;20029;-75
2022/12/11 02:46:24;;;;;;;0.10;0.10;;;5.20;99.90;;;;;;5015074;28;20029;-75
2022/12/11 02:48:51;;;;;;;0.00;0.00;;;5.10;99.90;;;;;;5013323;28;20196;-75
2022/12/11 02:51:26;;;;;;;0.10;0.10;;;5.10;99.90;;;;;;5008717;28;20030;-75
2022/12/11 02:53:56;;;;;;;0.10;0.10;;;5.10;99.90;;;;;;5014681;28;20112;-74
2022/12/11 02:56:37;;;;;;;0.00;0.00;;;5.10;99.90;;;;;;5014783;28;20068;-75
2022/12/11 02:59:12;;;;;;;0.00;0.00;;;5.00;99.90;;;;;;5007454;28;20026;-75
2022/12/11 03:01:38;;;;;;;0.10;0.10;;;5.00;99.90;;;;;;5019955;28;20063;-75
2022/12/11 03:04:04;;;;;;;0.00;0.00;;;4.90;99.90;;;;;;5054732;28;20120;-75
2022/12/11 03:06:38;;;;;;;0.10;0.10;;;4.90;99.90;;;;;;5054440;28;20298;-75
2022/12/11 03:09:05;;;;;;;0.10;0.10;;;4.90;99.90;;;;;;5058538;28;20025;-78
2022/12/11 03:11:31;;;;;;;0.10;0.10;;;4.80;99.90;;;;;;5054017;28;20025;-74
2022/12/11 03:13:58;;;;;;;0.00;0.00;;;4.90;99.90;;;;;;5083471;28;20047;-75
2022/12/11 03:16:35;;;;;;;0.10;0.10;;;4.90;99.90;;;;;;5092702;28;20036;-75
2022/12/11 03:19:43;;;;;;;0.00;0.00;;;4.90;99.90;;;;;;5081834;28;20074;-74
2022/12/11 03:22:26;;;;;;;0.05;0.05;;;4.90;99.90;;;;;;5100615;28;20516;-75
2022/12/11 03:24:54;;;;;;;0.00;0.00;;;4.90;99.90;;;;;;5101054;28;20024;-75
2022/12/11 03:27:26;;;;;;;0.10;0.10;;;4.80;99.90;;;;;;5107541;28;20193;-75
2022/12/11 03:30:12;;;;;;;0.00;0.00;;;4.90;99.90;;;;;;5102025;28;20050;-75
2022/12/11 03:32:50;;;;;;;0.10;0.10;;;4.90;99.90;;;;;;5101532;28;20084;-75
2022/12/11 03:35:33;;;;;;;0.00;0.00;;;4.70;99.90;;;;;;5080046;28;20024;-75
2022/12/11 03:38:10;;;;;;;0.00;0.00;;;4.70;99.90;;;;;;5095061;28;20028;-75
2022/12/11 03:40:41;;;;;;;0.00;0.00;;;4.80;99.90;;;;;;5097939;28;20335;-75
2022/12/11 03:43:07;;;;;;;0.00;0.00;;;4.80;99.90;;;;;;5101139;28;20098;-75
2022/12/11 03:45:33;;;;;;;0.00;0.00;;;;;;;;;;5093880;28;20081;-75
2022/12/11 03:48:01;;;;;;;0.00;0.00;;;4.80;99.90;;;;;;5092871;28;20035;-75
2022/12/11 03:50:30;;;;;;;0.10;0.10;;;4.80;99.90;;;;;;5091917;28;20027;-75
2022/12/11 03:52:57;;;;;;;0.00;0.00;;;4.80;99.90;;;;;;5102186;28;20013;-75
2022/12/11 03:55:24;;;;;;;0.00;0.00;;;4.80;99.90;;;;;;5106655;28;20042;-75
2022/12/11 03:58:11;;;;;;;0.05;0.05;;;4.80;99.90;;;;;;5103091;28;20024;-75
2022/12/11 04:00:37;;;;;;;0.00;0.00;;;4.80;99.90;;;;;;5095107;28;20198;-74
2022/12/11 04:03:12;;;;;;;0.00;0.00;;;4.80;99.90;;;;;;5089374;28;20204;-75
2022/12/11 04:05:39;;;;;;;0.10;0.10;;;4.70;99.90;;;;;;5072522;28;20051;-75
2022/12/11 04:08:04;;;;;;;0.05;0.05;;;4.70;99.90;;;;;;5098598;28;20099;-75
2022/12/11 04:10:30;;;;;;;0.00;0.00;;;4.70;99.90;;;;;;5102762;28;20016;-75
2022/12/11 04:12:56;;;;;;;0.00;0.00;;;4.70;99.90;;;;;;5100759;28;20023;-75
2022/12/11 04:15:21;;;;;;;0.00;0.00;;;4.60;99.90;;;;;;5100223;28;20051;-74
2022/12/11 04:26:08;;;;;;;0.10;0.10;;;4.60;99.90;;;;;;5089394;28;20098;-75
2022/12/11 04:28:35;;;;;;;0.00;0.00;;;4.60;99.90;;;;;;5094622;28;20028;-75
2022/12/11 04:31:01;;;;;;;0.00;0.00;;;4.60;99.90;;;;;;5090980;28;20056;-75
2022/12/11 04:33:27;;;;;;;0.00;0.00;;;4.50;99.90;;;;;;5096742;28;20024;-75
2022/12/11 04:35:53;;;;;;;0.00;0.00;;;4.50;99.90;;;;;;5102026;28;20055;-75
2022/12/11 04:38:18;;;;;;;0.08;0.08;;;4.50;99.90;;;;;;5097425;28;20031;-75
2022/12/11 04:40:44;;;;;;;0.10;0.10;;;4.40;99.90;;;;;;5096318;28;20024;-74
2022/12/11 04:43:10;;;;;;;0.00;0.00;;;4.40;99.90;;;;;;5095897;28;20028;-75
2022/12/11 04:45:36;;;;;;;0.10;0.10;;;4.50;99.90;;;;;;5088218;28;20020;-74
2022/12/11 04:48:01;;;;;;;0.00;0.00;;;4.40;99.90;;;;;;5096140;28;20028;-75
2022/12/11 04:50:27;;;;;;;0.00;0.00;;;4.30;99.90;;;;;;5093709;28;20032;-75
2022/12/11 04:52:56;;;;;;;0.00;0.00;;;4.30;99.90;;;;;;5089634;28;20046;-75
2022/12/11 04:55:22;;;;;;;0.00;0.00;;;4.30;99.90;;;;;;5093280;28;20085;-76
2022/12/11 04:57:48;;;;;;;0.00;0.00;;;4.20;99.90;;;;;;5096161;28;20040;-75
2022/12/11 05:00:15;;;;;;;0.08;0.08;;;4.20;99.90;;;;;;5070177;28;20061;-75
2022/12/11 05:02:41;;;;;;;0.03;0.03;;;4.20;99.90;;;;;;5094319;28;20230;-75
2022/12/11 05:05:09;;;;;;;0.00;0.00;;;4.20;99.90;;;;;;5094833;28;20027;-75
2022/12/11 05:07:36;;;;;;;0.00;0.00;;;5.30;99.90;;;;;;5096145;28;20028;-74
2022/12/11 05:10:02;;;;;;;0.00;0.00;;;4.10;99.90;;;;;;5075750;28;20054;-75
2022/12/11 05:12:28;;;;;;;0.10;0.10;;;4.00;99.90;;;;;;5094959;28;20026;-74
2022/12/11 05:14:54;;;;;;;0.03;0.03;;;4.00;99.90;;;;;;5094160;28;20520;-75
2022/12/11 05:17:20;;;;;;;0.00;0.00;;;4.00;99.90;;;;;;5094066;28;20545;-75
2022/12/11 05:19:47;;;;;;;0.10;0.10;;;4.00;99.90;;;;;;5075752;28;20040;-75
2022/12/11 05:22:14;;;;;;;4.53;4.38;;;4.00;99.90;;;;;;5093106;28;20332;-75
2022/12/11 05:24:40;;;;;;;0.10;0.10;;;4.00;99.90;;;;;;5087532;28;20042;-74
2022/12/11 05:27:09;;;;;;;0.10;0.10;;;3.90;99.90;;;;;;5093630;28;20243;-75
2022/12/11 05:29:36;;;;;;;0.00;0.00;;;1.70;99.90;;;;;;5093550;28;20213;-75
2022/12/11 05:32:02;;;;;;;0.10;0.10;;;3.90;99.90;;;;;;5095965;28;20051;-73
2022/12/11 05:34:27;;;;;;;1.48;1.45;;;3.80;99.90;;;;;;5093904;28;20024;-74
2022/12/11 05:36:53;;;;;;;0.00;0.00;;;3.80;99.90;;;;;;5068653;28;20035;-75
2022/12/11 05:39:19;;;;;;;0.00;0.00;;;3.80;99.90;;;;;;5093575;28;20032;-75
2022/12/11 05:41:45;;;;;;;0.10;0.10;;;3.70;99.90;;;;;;5088771;28;20027;-75
2022/12/11 05:44:12;;;;;;;0.10;0.10;;;3.60;99.90;;;;;;5093831;28;20470;-74
2022/12/11 05:46:38;;;;;;;0.00;0.00;;;3.60;99.90;;;;;;5088111;28;20111;-75
2022/12/11 05:49:04;;;;;;;0.00;0.00;;;3.60;99.90;;;;;;5086971;28;20042;-74
2022/12/11 05:51:33;;;;;;;0.00;0.00;;;3.50;99.90;;;;;;5092047;28;20027;-75
2022/12/11 05:54:00;;;;;;;0.03;0.03;;;3.50;99.90;;;;;;5096460;28;20105;-75
2022/12/11 05:56:31;;;;;;;0.10;0.10;;;3.40;99.90;;;;;;5096369;28;20064;-75
2022/12/11 05:58:59;;;;;;;0.10;0.10;;;3.50;99.90;;;;;;5087355;28;20028;-75
2022/12/11 06:01:28;;;;;;;0.05;0.05;;;3.50;99.90;;;;;;5094915;28;20502;-74
2022/12/11 06:03:56;;;;;;;0.10;0.10;;;3.40;99.90;;;;;;5092941;28;20114;-74
2022/12/11 06:06:23;;;;;;;0.00;0.00;;;3.20;99.90;;;;;;5074387;28;20047;-74
2022/12/11 06:08:50;;;;;;;0.10;0.10;;;3.30;99.90;;;;;;5093030;28;20016;-75
2022/12/11 06:11:16;;;;;;;0.00;0.00;;;3.30;99.90;;;;;;5088039;28;20051;-75
2022/12/11 06:13:42;;;;;;;0.10;0.10;;;3.30;99.90;;;;;;5094264;28;20424;-74
2022/12/11 06:16:10;;;;;;;0.10;0.10;;;3.20;99.90;;;;;;5093801;28;20028;-74
2022/12/11 06:18:41;;;;;;;0.00;0.00;;;3.20;99.90;;;;;;5094469;28;20036;-75
2022/12/11 06:21:33;;;;;;;0.00;0.00;;;3.20;99.90;;;;;;5087909;28;20028;-74
2022/12/11 06:24:01;;;;;;;0.00;0.00;;;3.20;99.90;;;;;;5087517;28;20144;-75
2022/12/11 06:26:28;;;;;;;0.00;0.00;;;3.10;99.90;;;;;;5092220;28;20027;-75
2022/12/11 06:28:54;;;;;;;0.05;0.05;;;3.10;99.90;;;;;;5097231;28;20099;-74
2022/12/11 06:31:20;;;;;;;0.10;0.10;;;3.00;99.90;;;;;;5069889;28;20040;-75
2022/12/11 06:33:50;;;;;;;0.00;0.00;;;3.00;99.90;;;;;;5094837;28;20020;-74
2022/12/11 06:36:22;;;;;;;0.10;0.10;;;3.00;99.90;;;;;;5094641;28;20358;-75
2022/12/11 06:38:48;;;;;;;0.10;0.10;;;3.00;99.90;;;;;;5087863;28;20112;-74
2022/12/11 06:41:14;;;;;;;0.10;0.10;;;3.00;99.90;;;;;;5095763;28;20111;-75
2022/12/11 06:43:41;;;;;;;0.08;0.08;;;3.00;99.90;;;;;;5099321;28;20145;-75
2022/12/11 06:46:15;;;;;;;0.10;0.10;;;3.00;99.90;;;;;;5100809;28;20027;-75
2022/12/11 06:48:41;;;;;;;;;;;3.00;99.90;;;;;;5099883;28;20038;-75
2022/12/11 06:51:12;;;;;;;0.00;0.00;;;3.10;99.90;;;;;;5094006;28;19926;-75
2022/12/11 06:53:38;;;;;;;0.10;0.10;;;3.00;99.90;;;;;;5093758;28;20248;-75
2022/12/11 06:56:09;;;;;;;0.40;0.40;;;3.10;99.90;;;;;;5091840;28;20031;-75
2022/12/11 06:58:35;;;;;;;0.10;0.10;;;3.10;99.90;;;;;;5092729;28;20036;-74
2022/12/11 07:01:03;;;;;;;0.05;0.05;;;3.10;99.90;;;;;;5092338;28;20020;-75
2022/12/11 07:03:33;;;;;;;0.00;0.00;;;3.10;99.90;;;;;;5075897;28;20020;-75
2022/12/11 07:06:01;;;;;;;0.10;0.10;;;3.10;99.90;;;;;;5089725;28;20403;-74
2022/12/11 07:08:28;;;;;;;0.10;0.10;;;3.10;99.90;;;;;;5073714;28;20063;-75
2022/12/11 07:10:53;;;;;;;0.00;0.00;;;3.20;99.90;;;;;;5095192;28;20024;-75
2022/12/11 07:13:19;;;;;;;0.00;0.00;;;3.20;99.90;;;;;;5096736;28;20099;-74
2022/12/11 07:15:48;;;;;;;0.00;0.00;;;3.20;99.90;;;;;;5097162;28;20024;-75
2022/12/11 07:18:17;;;;;;;0.08;0.08;;;3.20;99.90;;;;;;5096614;28;20040;-75
2022/12/11 07:20:43;;;;;;;0.00;0.00;;;3.20;99.90;;;;;;5097013;28;20035;-75
2022/12/11 07:23:09;;;;;;;0.05;0.05;;;3.10;99.90;;;;;;5092994;28;20101;-75
2022/12/11 07:25:36;;;;;;;0.00;0.00;;;3.10;99.90;;;;;;5097217;28;20501;-74
2022/12/11 07:28:02;;;;;;;0.00;0.00;;;3.20;99.90;;;;;;5096317;28;20107;-75
2022/12/11 07:30:28;;;;;;;0.10;0.10;;;3.10;99.90;;;;;;5097329;28;20044;-74
2022/12/11 07:32:53;;;;;;;0.10;0.10;;;3.10;99.90;;;;;;5094702;28;20035;-75
2022/12/11 07:35:19;;;;;;;0.00;0.00;;;1.90;99.90;;;;;;5092667;28;20575;-74
2022/12/11 07:37:47;;;;;;;0.00;0.00;;;3.00;99.90;;;;;;5089283;28;20020;-74
2022/12/11 07:40:14;;;;;;;0.10;0.10;;;3.00;99.90;;;;;;5091454;28;20047;-75
2022/12/11 07:42:40;;;;;;;0.20;0.20;;;3.00;99.90;;;;;;5072843;28;20035;-75
2022/12/11 07:45:06;;;;;;;0.03;0.03;;;3.10;99.90;;;;;;5092594;28;20405;-75
2022/12/11 07:47:32;;;;;;;0.00;0.00;;;3.10;99.90;;;;;;5089931;28;20200;-75
2022/12/11 07:49:58;;;;;;;0.10;0.10;;;;;;;;;;5084916;28;20024;-74
2022/12/11 07:52:26;;;;;;;0.00;0.00;;;3.00;99.90;;;;;;5090918;28;20020;-75
2022/12/11 07:54:51;;;;;;;0.00;0.00;;;3.00;99.90;;;;;;5100442;28;20059;-75
2022/12/11 07:57:17;;;;;;;0.00;0.00;;;3.00;99.90;;;;;;5097059;28;20032;-74
2022/12/11 07:59:48;;;;;;;0.10;0.10;;;3.10;99.90;;;;;;5100546;28;20035;-74
2022/12/11 08:02:14;;;;;;;0.08;0.08;;;3.10;99.90;;;;;;5102982;28;20036;-75
2022/12/11 08:04:40;;;;;;;0.00;0.00;;;3.00;99.90;;;;;;5086860;28;20040;-75
2022/12/11 08:07:05;;;;;;;0.10;0.10;;;3.00;99.90;;;;;;5097041;28;20012;-74
2022/12/11 08:09:31;;;;;;;0.10;0.10;;;3.00;99.90;;;;;;5090038;28;20618;-75
2022/12/11 08:11:57;;;;;;;0.10;0.10;;;2.90;99.90;;;;;;5095220;28;20419;-75
2022/12/11 08:14:23;;;;;;;0.00;0.00;;;2.90;99.90;;;;;;5099304;28;20027;-75
2022/12/11 08:16:51;;;;;;;0.10;0.10;;;2.90;99.90;;;;;;5095368;28;20598;-74
2022/12/11 08:19:17;;;;;;;0.00;0.00;;;2.90;99.90;;;;;;5096257;28;20028;-75
2022/12/11 08:21:44;;;;;;;0.10;0.10;;;2.90;99.90;;;;;;5091860;28;20059;-75
2022/12/11 08:24:10;;;;;;;0.00;0.00;;;2.90;99.90;;;;;;5087204;28;20111;-74
2022/12/11 08:26:38;;;;;;;0.10;0.10;;;3.00;99.90;;;;;;5074222;28;20016;-75
2022/12/11 08:29:04;;;;;;;0.00;0.00;;;3.10;99.90;;;;;;5093223;28;20032;-74
2022/12/11 08:31:30;;;;;;;0.10;0.10;;;3.10;99.90;;;;;;5094309;28;20027;-75
2022/12/11 08:33:56;;;;;;;0.10;0.10;;;3.10;99.90;;;;;;5087893;28;20418;-75
2022/12/11 08:36:24;;;;;;;0.10;0.10;;;3.20;99.90;;;;;;5094413;28;20342;-74
2022/12/11 08:38:50;;;;;;;0.10;0.10;;;3.20;99.90;;;;;;5091420;28;20032;-74
2022/12/11 08:41:22;;;;;;;0.10;0.10;;;3.20;99.90;;;;;;5088691;28;20085;-75
2022/12/11 08:43:48;;;;;;;0.00;0.00;;;3.30;99.90;;;;;;5088286;28;20043;-75
2022/12/11 08:46:14;;;;;;;0.10;0.10;;;3.30;99.90;;;;;;5085957;28;20232;-74
2022/12/11 08:48:42;;;;;;;0.00;0.00;;;3.30;99.90;;;;;;5089528;28;20329;-74
2022/12/11 08:51:12;;;;;;;0.20;0.20;;;3.30;99.90;;;;;;5085968;28;20390;-74
2022/12/11 08:53:39;;;;;;;0.10;0.10;;;3.30;99.90;;;;;;5092065;28;20035;-74
2022/12/11 08:56:13;;;;;;;0.00;0.00;;;3.30;99.90;;;;;;5084815;28;20024;-75
2022/12/11 08:58:40;;;;;;;0.00;0.00;;;3.30;99.90;;;;;;5113415;28;20019;-75
2022/12/11 09:01:13;;;;;;;0.00;0.00;;;3.30;99.90;;;;;;5115728;28;20050;-74
2022/12/11 09:03:41;;;;;;;0.10;0.10;;;3.30;99.90;;;;;;5110978;28;20047;-75
2022/12/11 09:06:12;;;;;;;0.10;0.10;;;3.30;99.90;;;;;;5118383;28;20027;-75
2022/12/11 09:08:43;;;;;;;0.10;0.10;;;3.30;99.90;;;;;;5114016;28;20024;-74
2022/12/11 09:11:13;;;;;;;0.10;0.10;;;3.30;99.90;;;;;;5114161;28;20019;-74
2022/12/11 09:13:40;;;;;;;0.00;0.00;;;3.30;99.90;;;;;;5108564;28;20100;-74
2022/12/11 09:16:08;;;;;;;0.00;0.00;;;3.30;99.90;;;;;;5105645;27;20067;-75
2022/12/11 09:18:38;;;;;;;0.00;0.00;;;3.20;99.90;;;;;;5067821;28;20579;-75
2022/12/11 09:21:10;;;;;;;0.10;0.10;;;3.20;99.90;;;;;;5082499;28;20716;-74
2022/12/11 09:23:36;;;;;;;0.00;0.00;;;3.20;99.90;;;;;;5092417;28;20553;-75
2022/12/11 09:26:06;;;;;;;0.00;0.00;;;3.10;99.90;;;;;;5095413;28;20008;-74
2022/12/11 09:28:32;;;;;;;0.10;0.10;;;3.20;99.90;;;;;;5098124;28;20043;-74
2022/12/11 09:30:58;;;;;;;0.00;0.00;;;3.20;99.90;;;;;;5093825;28;20019;-75
2022/12/11 09:33:24;;;;;;;0.00;0.00;;;3.30;99.90;;;;;;5094034;28;20200;-74
2022/12/11 09:35:58;;;;;;;0.20;0.20;;;3.30;99.90;;;;;;5094352;28;20095;-74
2022/12/11 09:38:25;;;;;;;0.10;0.10;;;3.30;99.90;;;;;;5093157;28;20043;-75
2022/12/11 09:40:50;;;;;;;0.10;0.10;;;3.40;99.90;;;;;;5075872;28;20321;-74
2022/12/11 09:43:48;;;;;;;0.00;0.00;;;3.40;99.90;;;;;;5086846;28;20733;-74
2022/12/11 09:46:16;;;;;;;0.10;0.10;;;3.50;99.90;;;;;;5079899;28;20623;-74
2022/12/11 09:48:47;;;;;;;0.03;0.03;;;3.50;99.90;;;;;;5090021;28;20016;-76
2022/12/11 09:51:41;;;;;;;0.00;0.00;;;2.10;99.90;;;;;;5094169;28;20015;-79
2022/12/11 09:54:11;;;;;;;0.10;0.10;;;3.40;99.90;;;;;;5061050;28;20016;-75
2022/12/11 09:57:18;;;;;;;0.00;0.00;;;3.50;99.90;;;;;;5092929;28;20024;-74
2022/12/11 10:00:10;;;;;;;0.10;0.10;;;3.40;99.90;;;;;;5104457;28;20043;-77
2022/12/11 10:02:41;;;;;;;0.10;0.10;;;3.40;99.90;;;;;;5109259;28;20032;-75
2022/12/11 10:05:36;;;;;;;0.10;0.10;;;3.40;99.90;;;;;;5107319;28;20016;-75
2022/12/11 10:08:31;;;;;;;0.20;0.20;;;3.40;99.90;;;;;;5100207;28;20034;-75
2022/12/11 10:11:40;;;;;;;0.00;0.00;;;3.40;99.90;;;;;;5103718;28;20034;-75
2022/12/11 10:14:39;;;;;;;0.08;0.08;;;3.30;99.90;;;;;;5105386;28;20044;-76
2022/12/11 10:17:30;;;;;;;0.10;0.10;;;3.30;99.90;;;;;;5112621;28;20332;-74
2022/12/11 10:20:35;;;;;;;0.00;0.00;;;3.30;99.90;;;;;;5128585;28;20085;-75
2022/12/11 10:23:05;;;;;;;0.00;0.00;;;3.40;99.90;;;;;;5095166;28;20012;-75
2022/12/11 10:26:20;;;;;;;0.05;0.05;;;3.50;99.90;;;;;;5123230;28;20042;-74
2022/12/11 10:28:49;;;;;;;0.10;0.10;;;3.50;99.90;;;;;;5126200;28;20020;-74
2022/12/11 10:31:38;;;;;;;0.00;0.00;;;3.60;99.90;;;;;;5111527;28;20038;-75
2022/12/11 10:34:33;;;;;;;0.10;0.10;;;3.70;99.90;;;;;;5022082;28;20054;-74
2022/12/11 10:37:02;;;;;;;0.00;0.00;;;3.70;99.90;;;;;;5023373;28;20045;-74
2022/12/11 10:39:29;;;;;;;0.10;0.10;;;3.60;99.90;;;;;;5008035;28;20035;-74
2022/12/11 10:42:04;;;;;;;0.00;0.00;;;3.00;99.90;;;;;;5022313;28;20093;-74
2022/12/11 10:44:32;;;;;;;0.10;0.10;;;3.70;99.90;;;;;;5023528;28;20030;-74
2022/12/11 10:47:14;;;;;;;0.10;0.10;;;3.70;99.90;;;;;;5008502;28;20093;-74
2022/12/11 10:50:00;;;;;;;0.10;0.10;;;3.80;99.90;;;;;;5023688;28;20052;-74
2022/12/11 10:52:43;;;;;;;0.00;0.00;;;3.70;99.90;;;;;;5023462;28;20061;-74
2022/12/11 10:55:33;;;;;;;0.00;0.00;;;3.60;99.90;;;;;;5019230;28;20101;-74
2022/12/11 10:58:02;;;;;;;14.90;13.90;;;3.90;99.90;;;;;;5013054;28;20045;-75
2022/12/11 11:00:44;;;;;;;0.10;0.10;;;3.90;99.90;;;;;;5005955;28;20109;-74
2022/12/11 11:03:24;;;;;;;0.10;0.10;;;3.20;99.90;;;;;;5007330;28;20077;-74
2022/12/11 11:06:05;;;;;;;0.00;0.00;;;3.90;99.90;;;;;;5010199;28;20038;-74
2022/12/11 11:08:43;;;;;;;0.00;0.00;;;3.90;99.90;;;;;;5021546;28;20026;-74
2022/12/11 11:11:32;;;;;;;3.80;2.83;;;3.80;99.90;;;;;;5070620;28;20127;-74
2022/12/11 11:14:20;;;;;;;0.00;0.00;;;4.10;99.90;;;;;;5111328;28;20027;-74
2022/12/11 11:16:56;;;;;;;0.10;0.10;;;3.70;99.90;;;;;;5073577;28;20028;-74
2022/12/11 11:19:35;;;;;;;0.10;0.10;;;2.70;99.90;;;;;;5093978;28;20714;-74
2022/12/11 11:22:05;;;;;;;0.20;0.20;;;3.70;99.90;;;;;;5112596;28;20062;-74
2022/12/11 11:24:41;;;;;;;0.00;0.00;;;3.80;99.90;;;;;;5110177;28;20023;-74
2022/12/11 11:27:39;;;;;;;0.15;0.15;;;3.90;99.90;;;;;;5113705;28;20050;-73
2022/12/11 11:30:17;;;;;;;0.00;0.00;;;3.80;99.90;;;;;;5116313;28;20045;-74
2022/12/11 11:32:43;;;;;;;0.10;0.10;;;;;;;;;;5115630;28;20035;-74
2022/12/11 11:35:11;;;;;;;0.03;0.03;;;3.70;99.90;;;;;;5115456;28;20020;-74
2022/12/11 11:37:40;;;;;;;0.10;0.10;;;3.80;99.90;;;;;;5116880;28;20118;-75
2022/12/11 11:40:13;;;;;;;0.08;0.08;;;3.70;99.90;;;;;;5116097;28;20015;-75
2022/12/11 11:43:14;;;;;;;0.00;0.00;;;3.70;99.90;;;;;;5116705;28;20042;-74
2022/12/11 11:45:52;;;;;;;0.00;0.00;;;4.10;99.90;;;;;;5126225;28;20114;-75
2022/12/11 11:48:20;;;;;;;0.10;0.10;;;;;;;;;;5120429;28;20020;-74
2022/12/11 11:50:50;;;;;;;0.10;0.10;;;6.00;99.90;;;;;;5124931;28;20028;-74
2022/12/11 11:53:38;;;;;;;2.72;2.63;;;5.60;99.90;;;;;;5103870;28;20087;-74
2022/12/11 11:56:36;;;;;;;0.10;0.10;;;5.30;99.90;;;;;;5124596;28;20030;-74
2022/12/11 11:59:20;;;;;;;0.10;0.10;;;5.00;99.90;;;;;;5129020;28;20595;-75
2022/12/11 12:01:46;;;;;;;0.00;0.00;;;4.70;99.90;;;;;;5099328;28;20115;-74
2022/12/11 12:04:13;;;;;;;0.00;0.00;;;4.60;99.90;;;;;;5117434;28;20061;-74
2022/12/11 12:07:15;;;;;;;0.00;0.00;;;4.40;99.90;;;;;;5108731;28;20035;-74
2022/12/11 12:10:00;;;;;;;0.10;0.10;;;5.10;99.90;;;;;;5118339;28;20004;-74
2022/12/11 12:12:32;;;;;;;0.00;0.00;;;4.20;99.90;;;;;;5106515;28;20024;-74
2022/12/11 12:15:36;;;;;;;0.05;0.05;;;3.90;99.90;;;;;;5127680;28;20027;-75
2022/12/11 12:18:56;;;;;;;0.08;0.08;;;4.00;99.90;;;;;;5110382;28;20040;-75
2022/12/11 12:21:51;;;;;;;0.10;0.10;;;3.90;99.90;;;;;;5010414;28;20042;-74
2022/12/11 12:24:42;;;;;;;0.08;0.08;;;3.80;99.90;;;;;;5015943;28;20026;-74
2022/12/11 12:27:19;;;;;;;0.08;0.08;;;3.20;99.90;;;;;;5004460;28;20033;-74
2022/12/11 12:30:10;;;;;;;0.00;0.00;;;3.70;99.90;;;;;;5007899;28;20065;-75
2022/12/11 12:33:12;;;;;;;0.85;0.85;;;3.70;99.90;;;;;;5016728;28;20053;-74
2022/12/11 12:36:15;;;;;;;0.00;0.00;;;3.70;99.90;;;;;;5012878;28;20029;-74
2022/12/11 12:39:04;;;;;;;0.05;0.05;;;3.60;99.90;;;;;;4910492;29;20047;-74
2022/12/11 12:41:56;;;;;;;0.05;0.05;;;3.50;99.90;;;;;;4929694;29;20040;-74
2022/12/11 12:44:24;;;;;;;0.10;0.10;;;2.50;99.90;;;;;;4918635;29;20036;-76
2022/12/11 12:47:11;;;;;;;0.10;0.10;;;3.50;99.90;;;;;;4916626;29;20024;-75
2022/12/11 12:49:48;;;;;;;0.00;0.00;;;3.50;99.90;;;;;;4922688;29;20032;-74
2022/12/11 12:52:36;;;;;;;0.10;0.10;;;3.50;99.90;;;;;;4919096;29;20070;-74
2022/12/11 12:55:27;;;;;;;12.15;11.50;;;2.90;99.90;;;;;;4923771;29;20037;-74
2022/12/11 12:58:04;;;;;;;1.42;1.38;;;3.50;99.90;;;;;;4971887;28;20379;-74
2022/12/11 13:00:43;;;;;;;0.05;0.05;;;3.30;99.90;;;;;;4992400;28;20032;-74
2022/12/11 13:03:53;;;;;;;1.10;1.10;;;3.70;99.90;;;;;;4998015;28;20117;-74
2022/12/11 13:06:48;;;;;;;0.03;0.03;;;3.70;99.90;;;;;;5009194;28;20083;-74
2022/12/11 13:09:16;;;;;;;8.77;8.35;;;3.80;99.90;;;;;;5003742;28;20129;-75
2022/12/11 13:11:44;;;;;;;0.00;0.00;;;3.80;99.90;;;;;;4989779;28;20022;-74
2022/12/11 13:14:14;;;;;;;0.10;0.10;;;3.80;99.90;;;;;;5000698;28;20473;-74
2022/12/11 13:17:30;;;;;;;0.10;0.10;;;3.80;99.90;;;;;;5096746;28;20043;-74
2022/12/11 13:20:43;;;;;;;0.00;0.00;;;3.80;99.90;;;;;;5121726;28;20016;-74
2022/12/11 13:23:21;;;;;;;0.00;0.00;;;3.90;99.90;;;;;;5111648;28;20039;-74
2022/12/11 13:25:56;;;;;;;0.10;0.10;;;4.00;99.90;;;;;;5119750;28;20019;-73
2022/12/11 13:28:45;;;;;;;0.08;0.08;;;4.10;99.90;;;;;;5118460;28;20276;-74
2022/12/11 13:31:58;;;;;;;0.00;0.00;;;4.10;99.90;;;;;;5097753;28;20035;-74
2022/12/11 13:34:30;;;;;;;1.92;1.85;;;4.10;99.90;;;;;;5029722;28;20791;-74
2022/12/11 13:36:57;;;;;;;0.00;0.00;;;4.10;99.90;;;;;;5016012;28;20628;-74
2022/12/11 13:39:26;;;;;;;0.00;0.00;;;4.10;99.90;;;;;;5012100;28;20057;-74
2022/12/11 13:42:22;;;;;;;0.10;0.10;;;4.20;99.90;;;;;;5028519;28;20680;-74